Time;durP1;ratioP1;P1;durP2;ratioP2;P2;SDS_P1;SDS_P2;PMS_P1;PMS_P2;Temp;Humidity;BMP_temperature;BMP_pressure;BME280_temperature;BME280_humidity;BME280_pressure;Samples;Min_cycle;Max_cycle;Signal;HPM_P1;HPM_P2
2022/05/27 00:01:26;;;;;;;5.20;1.73;;;;;;;18.18;49.14;98386.56;8417177;28;20234;-89
2022/05/27 00:05:29;;;;;;;3.13;1.60;;;;;;;18.10;49.82;98383.63;8416885;28;20254;-88
2022/05/27 00:09:32;;;;;;;3.87;1.53;;;;;;;18.08;49.83;98381.13;8417783;28;20235;-88
2022/05/27 00:13:35;;;;;;;2.90;1.40;;;;;;;17.94;50.21;98376.81;8417556;28;20238;-89
2022/05/27 00:17:40;;;;;;;4.43;1.70;;;;;;;17.93;50.00;98376.94;8417340;28;20235;-88
2022/05/27 00:21:43;;;;;;;4.53;1.70;;;;;;;17.98;50.24;98366.97;8417481;28;20237;-88
2022/05/27 00:25:46;;;;;;;5.70;1.40;;;;;;;17.87;50.79;98370.31;8417454;28;20302;-87
2022/05/27 00:29:49;;;;;;;4.33;1.50;;;;;;;17.81;50.73;98370.72;8417181;28;20230;-88
2022/05/27 00:34:10;;;;;;;3.50;1.60;;;;;;;17.78;51.20;98370.91;8417079;28;20549;-89
2022/05/27 00:38:13;;;;;;;4.43;2.03;;;;;;;17.71;50.92;98367.03;8416902;28;20245;-88
2022/05/27 00:42:16;;;;;;;4.20;1.63;;;;;;;17.67;51.12;98365.56;8416717;28;20238;-87
2022/05/27 00:46:21;;;;;;;4.17;1.50;;;;;;;17.67;51.08;98363.78;8416462;28;20231;-87
2022/05/27 00:50:29;;;;;;;5.27;1.73;;;;;;;17.53;51.23;98366.47;8415639;28;20231;-87
2022/05/27 00:54:32;;;;;;;4.47;1.63;;;;;;;17.59;51.20;98358.22;8416033;28;20238;-88
2022/05/27 00:58:39;;;;;;;3.23;1.53;;;;;;;17.59;51.30;98363.44;8415988;28;20230;-88
2022/05/27 01:02:42;;;;;;;2.27;1.60;;;;;;;17.59;51.45;98355.59;8415740;28;20249;-88
2022/05/27 01:06:47;;;;;;;5.03;1.67;;;;;;;17.49;51.62;98357.16;8415644;28;20233;-88
2022/05/27 01:10:56;;;;;;;4.37;1.63;;;;;;;17.48;51.82;98351.09;8415659;28;20234;-87
2022/05/27 01:15:13;;;;;;;3.30;1.60;;;;;;;17.46;51.90;98339.88;8415001;28;20233;-88
2022/05/27 01:24:20;;;;;;;3.07;1.50;;;;;;;17.39;51.95;98334.19;8394334;28;20238;-87
2022/05/27 01:28:33;;;;;;;4.43;1.63;;;;;;;17.45;51.78;98332.13;8414879;28;20229;-87
2022/05/27 01:32:41;;;;;;;4.07;1.73;;;;;;;17.37;52.06;98332.63;8415270;28;20230;-88
2022/05/27 01:36:51;;;;;;;3.67;1.50;;;;;;;17.35;51.87;98340.59;8414912;28;20248;-88
2022/05/27 01:41:02;;;;;;;3.77;1.60;;;;;;;17.36;51.99;98334.41;8414897;28;20227;-88
2022/05/27 01:45:10;;;;;;;3.03;1.53;;;;;;;17.27;52.57;98334.16;8414900;28;20238;-87
2022/05/27 01:49:21;;;;;;;3.20;1.60;;;;;;;17.20;53.04;98331.94;8414744;28;20536;-88
2022/05/27 01:53:28;;;;;;;5.43;1.60;;;;;;;17.08;53.13;98322.31;8414035;28;20537;-87
2022/05/27 01:57:39;;;;;;;3.77;1.60;;;;;;;17.24;52.61;98326.53;8414487;28;20383;-88
2022/05/27 02:01:44;;;;;;;6.13;1.90;;;;;;;17.17;52.69;98326.94;8414118;28;20241;-88
2022/05/27 02:05:53;;;;;;;7.23;2.00;;;;;;;17.06;53.28;98321.56;8414037;28;20241;-86
2022/05/27 02:09:59;;;;;;;2.90;1.50;;;;;;;17.06;53.48;98318.09;8414314;28;20233;-88
2022/05/27 02:14:05;;;;;;;6.27;2.03;;;;;;;16.99;53.65;98325.50;8414294;28;20223;-88
2022/05/27 02:18:12;;;;;;;5.17;2.10;;;;;;;16.95;53.09;98317.03;8414022;28;20241;-88
2022/05/27 02:22:19;;;;;;;5.33;2.40;;;;;;;16.96;53.04;98312.63;8414066;28;20222;-88
2022/05/27 02:26:25;;;;;;;7.00;2.20;;;;;;;16.93;53.17;98311.06;8414068;28;20525;-84
2022/05/27 02:30:30;;;;;;;4.23;1.70;;;;;;;16.95;53.07;98303.94;8420721;28;20522;-88
2022/05/27 02:38:59;;;;;;;5.30;1.67;;;;;;;17.00;53.21;98298.41;8420185;28;20235;-88
2022/05/27 02:43:08;;;;;;;4.73;1.90;;;;;;;16.81;53.45;98293.50;8420009;28;20399;-87
2022/05/27 02:47:17;;;;;;;5.17;1.87;;;;;;;16.70;53.86;98288.13;8420290;28;20230;-88
2022/05/27 02:51:35;;;;;;;4.23;1.60;;;;;;;16.77;53.75;98287.66;8420093;28;20234;-87
2022/05/27 02:55:46;;;;;;;3.73;1.80;;;;;;;16.74;53.71;98284.38;8419415;28;20414;-88
2022/05/27 02:59:50;;;;;;;4.10;1.70;;;;;;;16.78;53.58;98288.47;8419832;28;20493;-87
2022/05/27 03:03:53;;;;;;;3.80;1.87;;;;;;;16.74;53.87;98294.84;8419141;28;20231;-88
2022/05/27 03:08:05;;;;;;;4.47;1.70;;;;;;;16.74;54.03;98289.63;8419271;28;20252;-89
2022/05/27 03:12:14;;;;;;;5.87;1.67;;;;;;;16.72;54.36;98288.88;8419270;28;20245;-87
2022/05/27 03:16:25;;;;;;;4.17;1.97;;;;;;;16.69;54.19;98289.91;8419292;28;20230;-87
2022/05/27 03:20:42;;;;;;;3.93;2.17;;;;;;;16.67;54.58;98290.94;8392731;28;20231;-88
2022/05/27 03:24:54;;;;;;;6.90;2.10;;;;;;;16.66;54.56;98286.63;8385623;28;20235;-88
2022/05/27 03:29:07;;;;;;;9.27;2.20;;;;;;;16.60;54.51;98291.34;8385725;28;20238;-88
2022/05/27 03:33:14;;;;;;;5.73;2.50;;;;;;;16.60;54.53;98298.31;8385592;28;20422;-88
2022/05/27 03:37:22;;;;;;;6.47;2.70;;;;;;;16.70;54.36;98283.75;8385600;28;20538;-88
2022/05/27 03:41:28;;;;;;;5.67;2.23;;;;;;;16.51;55.03;98276.25;8384006;28;20224;-88
2022/05/27 03:45:32;;;;;;;5.90;2.10;;;;;;;16.60;54.79;98277.41;8385063;28;20235;-89
2022/05/27 03:49:35;;;;;;;7.73;2.10;;;;;;;16.74;54.25;98272.13;8385093;28;20231;-88
2022/05/27 03:57:58;;;;;;;5.40;2.13;;;;;;;16.66;54.46;98271.81;8385094;28;20250;-88
2022/05/27 04:02:03;;;;;;;4.53;2.10;;;;;;;16.75;54.44;98270.34;8384777;28;20235;-86
2022/05/27 04:06:06;;;;;;;5.13;2.00;;;;;;;16.85;54.22;98265.41;8384159;28;20239;-88
2022/05/27 04:10:10;;;;;;;5.00;2.17;;;;;;;16.88;54.21;98262.59;8389160;28;20219;-89
2022/05/27 04:14:13;;;;;;;4.43;1.83;;;;;;;16.90;54.14;98271.16;8400232;28;20226;-88
2022/05/27 04:18:17;;;;;;;5.20;1.80;;;;;;;16.90;54.16;98271.16;8400380;28;20227;-87
2022/05/27 04:22:20;;;;;;;5.33;2.20;;;;;;;16.93;54.40;98276.22;8389620;28;20238;-87
2022/05/27 04:26:24;;;;;;;5.20;2.30;;;;;;;16.98;54.61;98271.50;8383379;28;20238;-88
2022/05/27 04:30:26;;;;;;;5.17;2.27;;;;;;;17.06;54.31;98265.75;8383990;28;20251;-88
2022/05/27 04:34:31;;;;;;;6.20;2.00;;;;;;;17.15;54.16;98267.78;8383909;28;20265;-88
2022/05/27 04:38:34;;;;;;;4.43;2.07;;;;;;;17.08;54.44;98266.53;8383283;28;20238;-87
2022/05/27 04:42:37;;;;;;;4.97;2.07;;;;;;;17.18;54.65;98270.19;8396245;28;20238;-86
2022/05/27 04:46:43;;;;;;;6.00;2.00;;;;;;;17.29;54.42;98274.72;8377849;28;20238;-86
2022/05/27 04:50:47;;;;;;;3.90;1.87;;;;;;;17.32;54.84;98280.56;8382037;28;20294;-82
2022/05/27 04:54:50;;;;;;;5.20;2.20;;;;;;;17.37;54.38;98288.97;8382966;28;20402;-82
2022/05/27 04:58:54;;;;;;;6.23;2.30;;;;;;;17.49;54.30;98282.06;8382682;28;20224;-82
2022/05/27 05:02:58;;;;;;;7.87;2.33;;;;;;;17.42;54.97;98287.81;8382456;28;20527;-84
2022/05/27 05:07:06;;;;;;;6.30;2.20;;;;;;;17.59;54.79;98288.38;8382931;28;20235;-84
2022/05/27 05:11:10;;;;;;;5.47;2.00;;;;;;;17.68;55.14;98286.06;8383019;28;20417;-84
2022/05/27 05:15:28;;;;;;;4.57;2.33;;;;;;;17.75;55.03;98285.53;8500553;27;20318;-74
2022/05/27 05:19:31;;;;;;;6.17;2.10;;;;;;;17.74;55.03;98290.88;8476332;28;20425;-75
2022/05/27 05:23:34;;;;;;;5.20;2.27;;;;;;;17.82;55.20;98290.34;8476254;28;20241;-74
2022/05/27 05:27:38;;;;;;;5.97;2.47;;;;;;;17.85;54.96;98298.84;8476365;28;20524;-75
2022/05/27 05:31:43;;;;;;;9.23;2.80;;;;;;;17.73;55.38;98297.06;8475831;28;20251;-75
2022/05/27 05:35:46;;;;;;;6.23;2.27;;;;;;;17.85;55.62;98301.47;8475474;28;20388;-75
2022/05/27 05:39:49;;;;;;;4.67;1.90;;;;;;;17.88;55.16;98295.22;8475774;28;20367;-74
2022/05/27 05:43:52;;;;;;;7.57;2.20;;;;;;;17.77;55.49;98301.97;8475576;28;20400;-75
2022/05/27 05:47:56;;;;;;;5.30;2.40;;;;;;;17.81;55.41;98289.50;8475337;28;20226;-74
2022/05/27 05:52:00;;;;;;;4.80;2.47;;;;;;;18.05;55.08;98284.38;8475365;28;20234;-75
2022/05/27 05:56:03;;;;;;;5.03;2.50;;;;;;;17.97;54.91;98291.91;8475223;28;20221;-77
2022/05/27 06:00:07;;;;;;;6.60;2.30;;;;;;;17.90;55.39;98294.16;8475331;28;20240;-76
2022/05/27 06:04:13;;;;;;;5.87;2.70;;;;;;;17.89;55.26;98286.38;8474987;28;20230;-76
2022/05/27 06:08:17;;;;;;;6.13;2.70;;;;;;;18.12;54.77;98282.16;8474808;28;20233;-75
2022/05/27 06:12:23;;;;;;;4.53;2.87;;;;;;;18.04;55.18;98298.41;8474346;28;20255;-75
2022/05/27 06:16:27;;;;;;;5.10;2.53;;;;;;;17.99;55.36;98300.50;8474305;28;20340;-75
2022/05/27 06:20:31;;;;;;;5.77;2.77;;;;;;;17.97;55.27;98299.78;8474482;28;20421;-75
2022/05/27 06:24:34;;;;;;;6.37;2.87;;;;;;;18.04;55.39;98294.97;8463914;28;20238;-75
2022/05/27 06:37:38;;;;;;;4.53;2.83;;;;;;;18.34;54.20;98289.34;8315339;28;20232;-76
2022/05/27 06:41:41;;;;;;;8.53;2.77;;;;;;;18.40;54.34;98290.72;8389885;28;20229;-77
2022/05/27 06:45:44;;;;;;;4.67;2.70;;;;;;;18.51;54.44;98304.72;8468033;28;20225;-76
2022/05/27 06:49:47;;;;;;;3.57;2.87;;;;;;;18.39;54.34;98291.63;8451180;28;20225;-76
2022/05/27 06:53:51;;;;;;;7.33;3.37;;;;;;;18.39;54.29;98292.50;8450862;28;20532;-77
2022/05/27 06:57:54;;;;;;;4.60;2.90;;;;;;;18.51;53.92;98289.00;8450847;28;20230;-76
2022/05/27 07:01:57;;;;;;;5.80;2.70;;;;;;;18.40;54.12;98280.22;8450511;28;20230;-76
2022/05/27 07:06:00;;;;;;;7.77;2.90;;;;;;;18.33;54.73;98295.53;8450636;28;20237;-76
2022/05/27 07:10:06;;;;;;;6.70;3.20;;;;;;;18.42;53.93;98284.41;8450574;28;20537;-76
2022/05/27 07:14:09;;;;;;;9.00;3.33;;;;;;;18.74;53.12;98279.44;8450258;28;20226;-76
2022/05/27 07:18:12;;;;;;;5.10;3.17;;;;;;;18.97;52.75;98286.63;8450189;28;20517;-77
2022/05/27 07:22:15;;;;;;;8.17;3.17;;;;;;;19.22;52.42;98289.09;8450147;28;20548;-74
2022/05/27 07:26:20;;;;;;;8.90;3.33;;;;;;;19.33;51.59;98286.50;8449878;28;20230;-75
2022/05/27 07:30:23;;;;;;;5.80;2.70;;;;;;;19.70;50.77;98280.25;8449431;28;20230;-75
2022/05/27 07:34:26;;;;;;;4.93;2.77;;;;;;;19.73;50.23;98273.00;8449683;28;20234;-75
2022/05/27 07:38:29;;;;;;;9.30;2.63;;;;;;;19.60;49.65;98264.34;8448392;28;20231;-75
2022/05/27 07:42:33;;;;;;;5.20;2.50;;;;;;;19.18;50.30;98279.78;8449457;28;20229;-75
2022/05/27 07:46:37;;;;;;;5.87;2.60;;;;;;;19.14;50.91;98281.78;8449238;28;20242;-75
2022/05/27 07:50:40;;;;;;;7.00;2.50;;;;;;;19.16;50.44;98281.69;8449301;28;20255;-75
2022/05/27 07:54:43;;;;;;;6.03;2.50;;;;;;;19.16;50.36;98281.69;8449040;28;20242;-75
2022/05/27 07:58:53;;;;;;;7.03;2.30;;;;;;;19.38;50.41;98273.03;8449018;28;20536;-76
2022/05/27 08:02:57;;;;;;;4.27;2.63;;;;;;;19.62;50.19;98275.56;8448861;28;20521;-75
2022/05/27 08:07:00;;;;;;;4.63;2.30;;;;;;;20.66;48.58;98261.34;8448597;28;20544;-76
2022/05/27 08:11:03;;;;;;;5.17;2.80;;;;;;;20.87;47.31;98269.28;8448715;28;20224;-76
2022/05/27 08:15:09;;;;;;;4.43;2.60;;;;;;;21.23;46.13;98264.56;8448028;28;20254;-76
2022/05/27 08:19:12;;;;;;;5.07;2.63;;;;;;;21.76;45.60;98266.31;8448268;28;20235;-76
2022/05/27 08:23:15;;;;;;;5.70;2.90;;;;;;;21.06;47.31;98263.34;8448448;28;20267;-76
2022/05/27 08:27:18;;;;;;;5.20;2.80;;;;;;;20.87;47.83;98266.63;8448084;28;20235;-76
2022/05/27 08:31:22;;;;;;;5.07;2.60;;;;;;;20.92;47.26;98276.78;8447897;28;20392;-76
2022/05/27 08:39:46;;;;;;;6.20;2.67;;;;;;;21.38;48.22;98265.09;8447789;28;20233;-78
2022/05/27 08:44:02;;;;;;;6.13;2.63;;;;;;;21.21;47.62;98276.16;8447711;28;20539;-79
2022/05/27 08:48:10;;;;;;;6.87;3.20;;;;;;;21.25;47.38;98275.81;8447314;28;20392;-77
2022/05/27 08:52:18;;;;;;;8.07;2.50;;;;;;;21.30;47.42;98278.03;8447665;28;20222;-77
2022/05/27 09:00:46;;;;;;;7.87;3.07;;;;;;;21.10;47.93;98274.44;8447044;28;20233;-77
2022/05/27 09:04:56;;;;;;;6.60;2.90;;;;;;;20.87;47.77;98273.72;8447307;28;20226;-77
2022/05/27 09:08:59;;;;;;;9.20;2.70;;;;;;;20.73;48.30;98274.00;8447165;28;20513;-78
2022/05/27 09:13:07;;;;;;;9.43;3.30;;;;;;;20.62;48.45;98278.34;8446388;28;20233;-78
2022/05/27 09:17:16;;;;;;;4.50;2.63;;;;;;;20.48;48.76;98271.50;8446980;28;20229;-78
2022/05/27 09:21:28;;;;;;;7.53;2.80;;;;;;;20.33;48.84;98266.63;8446786;28;20254;-80
2022/05/27 09:25:35;;;;;;;6.43;2.63;;;;;;;20.47;48.89;98269.00;8446281;28;20321;-77
2022/05/27 09:29:49;;;;;;;6.07;2.70;;;;;;;20.02;49.88;98267.25;8422624;28;20272;-78
2022/05/27 09:33:54;;;;;;;7.00;2.63;;;;;;;19.90;49.78;98269.06;8413201;28;20239;-79
2022/05/27 09:38:01;;;;;;;4.13;2.47;;;;;;;19.71;50.57;98267.00;8413325;28;20220;-79
2022/05/27 09:42:13;;;;;;;10.50;2.87;;;;;;;20.03;49.79;98268.09;8421987;28;20239;-79
2022/05/27 09:46:20;;;;;;;5.97;2.30;;;;;;;20.03;49.48;98270.72;8446550;28;20237;-82
2022/05/27 09:50:26;;;;;;;5.00;2.30;;;;;;;19.84;48.99;98273.97;8446290;28;20331;-82
2022/05/27 09:54:39;;;;;;;6.90;2.20;;;;;;;19.61;49.42;98278.31;8446504;28;20541;-83
2022/05/27 09:58:47;;;;;;;7.40;2.40;;;;;;;19.53;49.73;98274.50;8447085;28;20233;-75
2022/05/27 10:02:50;;;;;;;3.80;2.10;;;;;;;19.68;49.37;98280.34;8452788;28;20414;-84
2022/05/27 10:07:04;;;;;;;5.40;2.43;;;;;;;19.84;49.29;98272.19;8452630;28;20231;-80
2022/05/27 10:11:25;;;;;;;6.33;2.90;;;;;;;19.61;49.98;98271.28;8452708;28;20445;-78
2022/05/27 10:15:36;;;;;;;5.73;3.00;;;;;;;19.70;49.78;98272.34;8451730;28;20237;-78
2022/05/27 10:19:41;;;;;;;5.40;3.03;;;;;;;19.62;49.79;98269.50;8452266;28;20231;-78
2022/05/27 10:23:46;;;;;;;5.43;3.10;;;;;;;19.34;50.65;98284.72;8452125;28;20229;-77
2022/05/27 10:27:55;;;;;;;8.70;3.30;;;;;;;19.11;50.80;98278.56;8451896;28;20228;-78
2022/05/27 10:32:01;;;;;;;4.23;3.10;;;;;;;19.59;50.06;98278.47;8451944;28;20237;-76
2022/05/27 10:36:23;;;;;;;5.17;3.53;;;;;;;19.36;49.93;98281.97;8450566;28;20232;-76
2022/05/27 10:40:33;;;;;;;7.30;4.00;;;;;;;19.36;50.03;98285.44;8435957;28;20228;-77
2022/05/27 10:44:45;;;;;;;6.83;4.40;;;;;;;19.13;50.58;98276.66;8435829;28;20228;-77
2022/05/27 10:49:22;;;;;;;6.47;4.30;;;;;;;19.12;50.78;98273.19;8433625;28;20230;-77
2022/05/27 10:53:38;;;;;;;5.17;4.03;;;;;;;19.26;50.81;98271.34;8451090;28;20229;-77
2022/05/27 11:02:50;;;;;;;6.97;4.47;;;;;;;19.17;51.32;98258.88;8413983;28;20231;-76
2022/05/27 11:07:04;;;;;;;5.73;4.33;;;;;;;19.01;51.81;98265.28;8431766;28;20227;-77
2022/05/27 11:11:15;;;;;;;4.53;4.13;;;;;;;19.18;51.74;98269.28;8417019;28;20227;-77
2022/05/27 11:15:29;;;;;;;8.57;4.77;;;;;;;18.98;51.99;98265.50;8416757;28;20238;-77
2022/05/27 11:20:02;;;;;;;7.13;4.87;;;;;;;18.91;52.03;98264.31;8450084;28;20219;-77
2022/05/27 11:24:37;;;;;;;8.47;5.00;;;;;;;18.87;52.25;98257.63;8403199;28;20236;-76
2022/05/27 11:29:12;;;;;;;6.50;4.90;;;;;;;18.86;52.45;98254.13;8416297;28;20230;-76
2022/05/27 11:33:27;;;;;;;6.23;4.73;;;;;;;19.10;52.33;98251.47;8416003;28;20230;-77
2022/05/27 11:37:52;;;;;;;6.10;4.50;;;;;;;18.98;52.39;98244.50;8415604;28;20409;-76
2022/05/27 11:42:05;;;;;;;6.43;4.50;;;;;;;18.93;52.80;98244.84;8423901;28;20230;-77
2022/05/27 11:46:30;;;;;;;8.53;5.00;;;;;;;18.89;52.82;98243.41;8449262;28;20465;-76
2022/05/27 11:51:09;;;;;;;8.57;5.00;;;;;;;18.89;53.57;98251.28;8449277;28;20242;-76
2022/05/27 11:55:48;;;;;;;7.60;5.37;;;;;;;18.95;55.60;98250.81;8423513;28;20230;-77
2022/05/27 11:59:56;;;;;;;5.90;5.13;;;;;;;19.31;56.40;98250.81;8417014;28;20237;-76
2022/05/27 12:04:05;;;;;;;8.20;5.23;;;;;;;19.67;56.24;98252.44;8449113;28;20231;-77
2022/05/27 12:08:19;;;;;;;7.63;5.57;;;;;;;19.73;54.45;98246.72;8448950;28;20310;-76
2022/05/27 12:12:25;;;;;;;8.77;5.70;;;;;;;20.06;53.59;98250.28;8448915;28;20242;-76
2022/05/27 12:16:32;;;;;;;7.23;5.30;;;;;;;20.47;52.43;98240.91;8448305;28;20236;-76
2022/05/27 12:20:37;;;;;;;5.37;4.20;;;;;;;20.50;51.31;98237.19;8448497;28;20344;-76
2022/05/27 12:24:43;;;;;;;6.50;5.00;;;;;;;20.86;51.06;98227.28;8447637;28;20242;-76
2022/05/27 12:28:46;;;;;;;4.70;4.20;;;;;;;20.83;49.70;98225.75;8448409;28;20549;-76
2022/05/27 12:32:51;;;;;;;9.23;4.20;;;;;;;20.73;51.26;98222.19;8448054;28;20252;-76
2022/05/27 12:36:54;;;;;;;5.13;3.40;;;;;;;21.18;49.25;98216.69;8448043;28;20237;-76
2022/05/27 12:41:00;;;;;;;4.03;3.60;;;;;;;21.29;48.69;98207.91;8448041;28;20227;-76
2022/05/27 12:45:21;;;;;;;5.90;3.30;;;;;;;21.39;47.10;98203.50;8447926;28;20230;-77
2022/05/27 12:49:33;;;;;;;4.10;3.27;;;;;;;20.84;48.06;98206.34;8447339;28;20231;-76
2022/05/27 12:53:55;;;;;;;4.33;3.27;;;;;;;20.48;49.69;98202.28;8447703;28;20252;-77
2022/05/27 13:02:44;;;;;;;4.50;3.07;;;;;;;19.86;52.89;98207.19;8447152;28;20217;-79
2022/05/27 13:07:04;;;;;;;3.20;2.67;;;;;;;20.09;51.93;98210.63;8442129;28;20345;-79
2022/05/27 13:11:14;;;;;;;3.80;2.67;;;;;;;19.72;52.79;98202.16;8447232;28;20225;-79
2022/05/27 13:15:31;;;;;;;4.23;2.80;;;;;;;19.86;52.04;98209.00;8446746;28;20236;-79
2022/05/27 13:19:36;;;;;;;2.93;2.30;;;;;;;20.64;50.13;98215.06;8446586;28;20232;-92
2022/05/27 13:23:58;;;;;;;3.80;2.10;;;;;;;21.43;48.95;98210.19;8446933;28;20248;-79
2022/05/27 13:28:03;;;;;;;3.77;2.30;;;;;;;22.13;47.74;98196.34;8447047;28;20229;-77
2022/05/27 13:32:12;;;;;;;2.33;2.13;;;;;;;21.01;48.92;98186.50;8447275;28;20220;-80
2022/05/27 13:36:19;;;;;;;2.30;2.10;;;;;;;21.72;47.58;98185.81;8452284;28;20404;-79
2022/05/27 13:40:27;;;;;;;7.00;2.30;;;;;;;21.10;48.23;98184.94;8453247;28;20233;-74
2022/05/27 13:44:31;;;;;;;5.20;2.30;;;;;;;21.22;48.02;98173.34;8453352;28;20229;-76
2022/05/27 13:48:38;;;;;;;2.73;2.07;;;;;;;21.76;47.65;98183.72;8453440;28;20288;-76
2022/05/27 13:52:41;;;;;;;2.83;2.30;;;;;;;21.59;47.42;98175.50;8453204;28;20230;-77
2022/05/27 13:56:51;;;;;;;5.03;2.60;;;;;;;21.34;47.59;98178.53;8452959;28;20253;-77
2022/05/27 14:00:58;;;;;;;3.60;2.20;;;;;;;21.75;47.73;98161.00;8452958;28;20514;-77
2022/05/27 14:05:06;;;;;;;2.80;1.70;;;;;;;20.93;48.55;98170.53;8452792;28;20232;-78
2022/05/27 14:09:18;;;;;;;1.63;1.53;;;;;;;20.79;48.77;98162.94;8452635;28;20526;-76
2022/05/27 14:13:28;;;;;;;7.80;1.60;;;;;;;20.80;49.70;98173.34;8452344;28;20233;-77
2022/05/27 14:17:39;;;;;;;3.73;1.70;;;;;;;21.03;48.62;98158.25;8451824;28;20427;-77
2022/05/27 14:26:05;;;;;;;3.17;1.40;;;;;;;20.79;49.62;98168.22;8452295;28;20228;-78
2022/05/27 14:30:14;;;;;;;14.30;2.00;;;;;;;20.44;50.01;98164.03;8451486;28;20228;-77
2022/05/27 14:34:19;;;;;;;2.53;1.50;;;;;;;20.55;50.83;98164.00;8451851;28;20226;-77
2022/05/27 14:38:24;;;;;;;4.97;1.67;;;;;;;20.22;51.41;98164.94;8450932;28;20226;-77
2022/05/27 14:42:27;;;;;;;2.30;1.10;;;;;;;20.09;51.67;98150.16;8465743;27;20224;-76
2022/05/27 14:46:32;;;;;;;5.53;1.53;;;;;;;20.22;51.55;98149.16;8450946;28;20229;-76
2022/05/27 14:50:35;;;;;;;4.47;1.40;;;;;;;20.18;52.15;98150.38;8451054;28;20239;-76
2022/05/27 14:54:38;;;;;;;1.63;1.37;;;;;;;19.98;51.71;98158.06;8450858;28;20235;-76
2022/05/27 14:58:41;;;;;;;3.03;1.20;;;;;;;19.65;52.59;98162.38;8451152;28;23764;-77
2022/05/27 15:02:51;;;;;;;2.37;1.10;;;;;;;19.58;53.49;98184.00;8450958;28;20234;-76
2022/05/27 15:06:55;;;;;;;4.53;1.30;;;;;;;18.18;60.45;98200.47;8450896;28;20236;-76
2022/05/27 15:11:06;;;;;;;3.63;1.53;;;;;;;17.93;61.40;98204.88;8450715;28;20513;-76
2022/05/27 15:15:10;;;;;;;9.33;2.10;;;;;;;17.58;62.21;98191.56;8450343;28;20303;-76
2022/05/27 15:19:18;;;;;;;3.10;1.70;;;;;;;18.01;61.21;98195.59;8450367;28;20233;-77
2022/05/27 15:23:24;;;;;;;2.93;1.50;;;;;;;17.94;61.64;98195.22;8450314;28;20217;-76
2022/05/27 15:36:11;;;;;;;2.07;1.60;;;;;;;18.52;62.67;98159.56;8483688;28;20233;-76
2022/05/27 15:40:15;;;;;;;3.47;1.60;;;;;;;18.66;61.57;98166.38;8483580;28;20229;-77
2022/05/27 15:44:18;;;;;;;2.30;1.53;;;;;;;18.63;61.59;98156.13;8466863;28;20297;-76
2022/05/27 15:48:21;;;;;;;4.37;1.30;;;;;;;18.54;62.43;98154.16;8449274;28;20431;-77
2022/05/27 15:52:25;;;;;;;2.27;1.50;;;;;;;18.49;62.52;98151.91;8449843;28;20226;-76
2022/05/27 15:56:28;;;;;;;1.97;1.53;;;;;;;18.68;62.37;98158.41;8448384;28;20234;-75
2022/05/27 16:00:31;;;;;;;2.57;1.47;;;;;;;18.60;61.82;98156.38;8448956;28;20222;-75
2022/05/27 16:04:35;;;;;;;3.67;1.50;;;;;;;18.73;62.08;98146.63;8448528;28;20238;-75
2022/05/27 16:08:39;;;;;;;2.07;1.20;;;;;;;18.82;61.95;98158.22;8448252;28;20233;-75
2022/05/27 16:12:43;;;;;;;1.97;1.20;;;;;;;19.18;61.65;98150.31;8448363;28;20432;-76
2022/05/27 16:21:07;;;;;;;3.07;1.60;;;;;;;19.21;60.47;98139.56;8448080;28;20234;-76
2022/05/27 16:25:17;;;;;;;5.07;1.80;;;;;;;19.46;60.73;98138.53;8447727;28;20222;-76
2022/05/27 16:29:21;;;;;;;1.80;1.47;;;;;;;19.33;60.80;98147.34;8414252;28;20233;-76
2022/05/27 16:33:25;;;;;;;3.40;1.70;;;;;;;19.11;60.85;98142.94;8455452;28;20524;-75
2022/05/27 16:37:28;;;;;;;5.00;1.90;;;;;;;19.09;60.11;98143.97;8468288;28;20240;-78
2022/05/27 16:41:32;;;;;;;5.23;2.00;;;;;;;19.02;60.24;98142.75;8467251;28;20226;-77
2022/05/27 16:45:36;;;;;;;5.13;1.83;;;;;;;18.92;60.72;98140.88;8446440;28;20244;-81
2022/05/27 16:49:38;;;;;;;2.17;1.77;;;;;;;18.97;61.38;98139.69;8447128;28;20230;-80
2022/05/27 16:53:44;;;;;;;2.33;1.93;;;;;;;19.13;60.75;98142.78;8447362;28;23874;-85
2022/05/27 16:57:49;;;;;;;2.33;1.97;;;;;;;19.28;60.48;98136.34;8446957;28;20233;-82
2022/05/27 17:01:53;;;;;;;2.17;1.93;;;;;;;19.26;60.85;98130.38;8447041;28;20227;-76
2022/05/27 17:05:56;;;;;;;4.30;2.60;;;;;;;19.03;60.96;98139.19;8446797;28;20242;-76
2022/05/27 17:09:59;;;;;;;4.23;2.27;;;;;;;19.06;60.54;98126.69;8446869;28;20226;-75
2022/05/27 17:14:03;;;;;;;4.10;2.70;;;;;;;18.79;61.13;98129.59;8446899;28;20233;-76
2022/05/27 17:18:06;;;;;;;3.27;2.73;;;;;;;18.81;60.85;98130.34;8446563;28;20236;-75
2022/05/27 17:22:10;;;;;;;3.27;2.60;;;;;;;18.71;61.44;98126.69;8446586;28;20222;-75
2022/05/27 17:26:13;;;;;;;3.67;2.87;;;;;;;18.55;61.79;98138.31;8446223;28;20521;-75
2022/05/27 17:30:18;;;;;;;3.63;2.90;;;;;;;18.54;61.46;98126.19;8446246;28;20226;-74
2022/05/27 17:34:21;;;;;;;3.60;2.97;;;;;;;18.78;61.26;98121.84;8446450;28;20231;-75
2022/05/27 17:38:24;;;;;;;6.80;3.30;;;;;;;18.63;61.55;98129.88;8479663;28;20240;-76
2022/05/27 17:42:27;;;;;;;5.33;3.33;;;;;;;18.60;61.76;98127.50;8479720;28;20511;-75
2022/05/27 17:55:14;;;;;;;4.90;3.10;;;;;;;18.72;60.69;98123.13;8446298;28;20222;-73
2022/05/27 17:59:18;;;;;;;3.63;2.70;;;;;;;18.71;60.36;98118.81;8446279;28;20230;-75
2022/05/27 18:03:22;;;;;;;3.33;2.63;;;;;;;18.72;59.67;98120.50;8446221;28;20230;-75
2022/05/27 18:07:25;;;;;;;3.13;2.60;;;;;;;18.71;59.98;98121.44;8445479;28;20230;-75
2022/05/27 18:11:28;;;;;;;3.20;2.20;;;;;;;18.66;60.27;98129.66;8445865;28;20230;-76
2022/05/27 18:15:31;;;;;;;4.07;2.53;;;;;;;18.67;59.97;98131.31;8445949;28;20234;-75
2022/05/27 18:19:35;;;;;;;12.93;3.87;;;;;;;18.62;60.26;98137.88;8446320;28;20242;-75
2022/05/27 18:23:38;;;;;;;15.17;5.23;;;;;;;18.79;60.09;98141.84;8451239;28;20230;-75
2022/05/27 18:27:41;;;;;;;20.13;4.77;;;;;;;18.97;59.38;98139.69;8451803;28;20238;-75
2022/05/27 18:31:44;;;;;;;13.20;3.60;;;;;;;19.13;59.06;98142.78;8451714;28;20230;-74
2022/05/27 18:35:48;;;;;;;4.70;2.30;;;;;;;19.11;58.75;98137.69;8451511;28;20226;-75
2022/05/27 18:39:51;;;;;;;5.53;2.20;;;;;;;19.27;58.32;98133.88;8451272;28;20230;-74
2022/05/27 18:43:55;;;;;;;6.70;2.20;;;;;;;19.69;56.80;98140.16;8446567;28;20413;-75
2022/05/27 18:47:58;;;;;;;4.97;2.00;;;;;;;19.52;57.70;98130.16;8453903;28;20235;-75
2022/05/27 18:52:02;;;;;;;5.80;1.70;;;;;;;19.56;57.52;98134.22;8453198;28;20317;-75
2022/05/27 18:56:06;;;;;;;5.43;2.00;;;;;;;19.62;57.41;98133.72;8452562;28;20295;-75
2022/05/27 19:00:12;;;;;;;5.53;1.87;;;;;;;19.66;57.34;98145.66;8452661;28;20402;-75
2022/05/27 19:04:17;;;;;;;4.83;1.47;;;;;;;19.65;57.19;98130.03;8451323;28;20227;-74
2022/05/27 19:08:24;;;;;;;9.47;1.90;;;;;;;19.66;56.98;98145.66;8451335;28;20231;-76
2022/05/27 19:12:27;;;;;;;7.60;1.47;;;;;;;19.69;57.03;98150.69;8450518;28;20246;-75
2022/05/27 19:16:30;;;;;;;2.10;1.40;;;;;;;19.70;57.02;98151.50;8451114;28;20236;-75
2022/05/27 19:24:55;;;;;;;2.43;1.30;;;;;;;19.72;56.83;98154.88;8450769;28;20226;-75
2022/05/27 19:28:58;;;;;;;3.63;1.20;;;;;;;19.72;56.77;98160.13;8450891;28;20237;-75
2022/05/27 19:33:04;;;;;;;6.03;1.77;;;;;;;19.76;56.64;98163.34;8450624;28;20537;-75
2022/05/27 19:37:07;;;;;;;2.63;1.47;;;;;;;19.80;56.71;98172.66;8450555;28;20231;-75
2022/05/27 19:41:11;;;;;;;3.40;1.50;;;;;;;19.81;56.67;98172.53;8449741;28;20231;-74
2022/05/27 19:45:15;;;;;;;2.80;1.53;;;;;;;19.85;56.50;98176.59;8449408;28;20237;-75
2022/05/27 19:49:18;;;;;;;5.00;1.60;;;;;;;19.84;56.63;98174.94;8449556;28;20556;-76
2022/05/27 19:53:21;;;;;;;1.73;1.40;;;;;;;19.87;56.47;98179.09;8448862;28;20215;-76
2022/05/27 20:06:05;;;;;;;2.23;1.50;;;;;;;19.86;56.76;98187.97;8446902;28;20233;-75
2022/05/27 20:10:11;;;;;;;4.97;1.80;;;;;;;19.85;56.84;98184.47;8447428;28;20233;-75
2022/05/27 20:14:15;;;;;;;2.67;1.67;;;;;;;19.86;56.96;98191.44;8445408;28;20238;-75
2022/05/27 20:18:18;;;;;;;4.03;1.90;;;;;;;19.83;57.26;98196.09;8447829;28;20235;-76
2022/05/27 20:22:23;;;;;;;7.40;2.83;;;;;;;19.83;57.45;98202.16;8447849;28;20222;-76
2022/05/27 20:26:26;;;;;;;4.80;2.97;;;;;;;19.79;57.42;98208.63;8447199;28;20425;-75
2022/05/27 20:30:30;;;;;;;3.97;2.80;;;;;;;19.83;56.98;98214.47;8447601;28;20228;-76
2022/05/27 20:34:33;;;;;;;3.70;2.40;;;;;;;19.78;57.22;98214.00;8445064;28;20424;-76
2022/05/27 20:38:36;;;;;;;4.07;2.23;;;;;;;19.73;57.29;98203.84;8447118;28;20234;-75
2022/05/27 20:42:39;;;;;;;4.03;2.13;;;;;;;19.75;56.96;98214.25;8446846;28;20300;-75